sensor_id;sensor_type;location;lat;lon;timestamp;temperature;humidity
48019;DHT22;33786;48.690;9.562;2023-06-22T00:00:00;20.80;99.90
48019;DHT22;33786;48.690;9.562;2023-06-22T00:02:26;20.80;99.90
48019;DHT22;33786;48.690;9.562;2023-06-22T00:04:53;20.80;99.90
48019;DHT22;33786;48.690;9.562;2023-06-22T00:07:20;20.60;99.90
48019;DHT22;33786;48.690;9.562;2023-06-22T00:09:47;20.50;99.90
48019;DHT22;33786;48.690;9.562;2023-06-22T00:12:13;20.60;99.90
48019;DHT22;33786;48.690;9.562;2023-06-22T00:14:40;20.60;99.90
48019;DHT22;33786;48.690;9.562;2023-06-22T00:17:07;20.60;99.90
48019;DHT22;33786;48.690;9.562;2023-06-22T00:19:33;20.60;99.90
48019;DHT22;33786;48.690;9.562;2023-06-22T00:22:02;20.40;99.90
48019;DHT22;33786;48.690;9.562;2023-06-22T00:24:30;20.40;99.90
48019;DHT22;33786;48.690;9.562;2023-06-22T00:26:56;20.10;99.90
48019;DHT22;33786;48.690;9.562;2023-06-22T00:29:23;20.30;99.90
48019;DHT22;33786;48.690;9.562;2023-06-22T00:31:51;20.40;99.90
48019;DHT22;33786;48.690;9.562;2023-06-22T00:34:18;20.40;99.90
48019;DHT22;33786;48.690;9.562;2023-06-22T00:36:44;20.40;99.90
48019;DHT22;33786;48.690;9.562;2023-06-22T00:39:12;20.40;99.90
48019;DHT22;33786;48.690;9.562;2023-06-22T00:41:38;20.40;99.90
48019;DHT22;33786;48.690;9.562;2023-06-22T00:44:05;20.40;99.90
48019;DHT22;33786;48.690;9.562;2023-06-22T00:46:33;20.40;99.90
48019;DHT22;33786;48.690;9.562;2023-06-22T00:49:00;20.40;99.90
48019;DHT22;33786;48.690;9.562;2023-06-22T00:51:26;20.30;99.90
48019;DHT22;33786;48.690;9.562;2023-06-22T00:53:53;20.30;99.90
48019;DHT22;33786;48.690;9.562;2023-06-22T00:56:20;20.30;99.90
48019;DHT22;33786;48.690;9.562;2023-06-22T00:58:51;20.30;99.90
48019;DHT22;33786;48.690;9.562;2023-06-22T01:01:19;20.20;99.90
48019;DHT22;33786;48.690;9.562;2023-06-22T01:03:50;20.20;99.90
48019;DHT22;33786;48.690;9.562;2023-06-22T01:06:22;20.10;99.90
48019;DHT22;33786;48.690;9.562;2023-06-22T01:09:06;20.10;99.90
48019;DHT22;33786;48.690;9.562;2023-06-22T01:11:41;20.00;99.90
48019;DHT22;33786;48.690;9.562;2023-06-22T01:14:23;19.90;99.90
48019;DHT22;33786;48.690;9.562;2023-06-22T01:16:51;19.90;99.90
48019;DHT22;33786;48.690;9.562;2023-06-22T01:22:04;19.90;99.90
48019;DHT22;33786;48.690;9.562;2023-06-22T01:27:09;19.80;99.90
48019;DHT22;33786;48.690;9.562;2023-06-22T01:29:40;19.80;99.90
48019;DHT22;33786;48.690;9.562;2023-06-22T01:32:07;19.70;99.90
48019;DHT22;33786;48.690;9.562;2023-06-22T01:34:35;19.70;99.90
48019;DHT22;33786;48.690;9.562;2023-06-22T01:37:02;19.70;99.90
48019;DHT22;33786;48.690;9.562;2023-06-22T01:39:29;19.60;99.90
48019;DHT22;33786;48.690;9.562;2023-06-22T01:41:57;19.50;99.90
48019;DHT22;33786;48.690;9.562;2023-06-22T01:44:24;19.50;99.90
48019;DHT22;33786;48.690;9.562;2023-06-22T01:46:52;19.50;99.90
48019;DHT22;33786;48.690;9.562;2023-06-22T01:49:20;19.50;99.90
48019;DHT22;33786;48.690;9.562;2023-06-22T01:51:46;19.40;99.90
48019;DHT22;33786;48.690;9.562;2023-06-22T01:54:13;19.40;99.90
48019;DHT22;33786;48.690;9.562;2023-06-22T01:56:40;19.40;99.90
48019;DHT22;33786;48.690;9.562;2023-06-22T02:01:40;19.30;99.90
48019;DHT22;33786;48.690;9.562;2023-06-22T02:04:13;19.20;99.90
48019;DHT22;33786;48.690;9.562;2023-06-22T02:06:42;19.20;99.90
48019;DHT22;33786;48.690;9.562;2023-06-22T02:09:09;19.20;99.90
48019;DHT22;33786;48.690;9.562;2023-06-22T02:11:38;19.20;99.90
48019;DHT22;33786;48.690;9.562;2023-06-22T02:14:06;19.10;99.90
48019;DHT22;33786;48.690;9.562;2023-06-22T02:16:33;19.10;99.90
48019;DHT22;33786;48.690;9.562;2023-06-22T02:19:00;19.10;99.90
48019;DHT22;33786;48.690;9.562;2023-06-22T02:21:29;19.10;99.90
48019;DHT22;33786;48.690;9.562;2023-06-22T02:23:57;19.20;99.90
48019;DHT22;33786;48.690;9.562;2023-06-22T02:26:27;19.10;99.90
48019;DHT22;33786;48.690;9.562;2023-06-22T02:28:54;19.00;99.90
48019;DHT22;33786;48.690;9.562;2023-06-22T02:31:21;19.00;99.90
48019;DHT22;33786;48.690;9.562;2023-06-22T02:33:50;18.90;99.90
48019;DHT22;33786;48.690;9.562;2023-06-22T02:36:16;19.00;99.90
48019;DHT22;33786;48.690;9.562;2023-06-22T02:38:48;18.90;99.90
48019;DHT22;33786;48.690;9.562;2023-06-22T02:41:15;18.90;99.90
48019;DHT22;33786;48.690;9.562;2023-06-22T02:43:45;18.90;99.90
48019;DHT22;33786;48.690;9.562;2023-06-22T02:46:13;18.80;99.90
48019;DHT22;33786;48.690;9.562;2023-06-22T02:48:40;18.80;99.90
48019;DHT22;33786;48.690;9.562;2023-06-22T02:51:07;18.70;99.90
48019;DHT22;33786;48.690;9.562;2023-06-22T02:53:34;18.70;99.90
48019;DHT22;33786;48.690;9.562;2023-06-22T02:56:01;18.70;99.90
48019;DHT22;33786;48.690;9.562;2023-06-22T02:58:29;18.60;99.90
48019;DHT22;33786;48.690;9.562;2023-06-22T03:00:56;18.60;99.90
48019;DHT22;33786;48.690;9.562;2023-06-22T03:03:23;18.50;99.90
48019;DHT22;33786;48.690;9.562;2023-06-22T03:05:52;18.50;99.90
48019;DHT22;33786;48.690;9.562;2023-06-22T03:08:19;18.40;99.90
48019;DHT22;33786;48.690;9.562;2023-06-22T03:10:46;18.40;99.90
48019;DHT22;33786;48.690;9.562;2023-06-22T03:13:13;18.40;99.90
48019;DHT22;33786;48.690;9.562;2023-06-22T03:15:39;18.40;99.90
48019;DHT22;33786;48.690;9.562;2023-06-22T03:18:06;18.40;99.90
48019;DHT22;33786;48.690;9.562;2023-06-22T03:20:33;18.40;99.90
48019;DHT22;33786;48.690;9.562;2023-06-22T03:23:00;18.40;99.90
48019;DHT22;33786;48.690;9.562;2023-06-22T03:25:27;18.40;99.90
48019;DHT22;33786;48.690;9.562;2023-06-22T03:27:53;18.40;99.90
48019;DHT22;33786;48.690;9.562;2023-06-22T03:30:20;18.50;99.90
48019;DHT22;33786;48.690;9.562;2023-06-22T03:32:47;18.70;99.90
48019;DHT22;33786;48.690;9.562;2023-06-22T03:35:14;18.90;99.90
48019;DHT22;33786;48.690;9.562;2023-06-22T03:37:40;18.90;99.90
48019;DHT22;33786;48.690;9.562;2023-06-22T03:40:07;18.90;99.90
48019;DHT22;33786;48.690;9.562;2023-06-22T03:42:34;18.90;99.90
48019;DHT22;33786;48.690;9.562;2023-06-22T03:45:04;18.90;99.90
48019;DHT22;33786;48.690;9.562;2023-06-22T03:47:31;18.90;99.90
48019;DHT22;33786;48.690;9.562;2023-06-22T03:49:58;19.00;99.90
48019;DHT22;33786;48.690;9.562;2023-06-22T03:52:25;19.10;99.90
48019;DHT22;33786;48.690;9.562;2023-06-22T03:54:51;19.20;99.90
48019;DHT22;33786;48.690;9.562;2023-06-22T03:57:18;19.40;99.90
48019;DHT22;33786;48.690;9.562;2023-06-22T03:59:45;19.60;99.90
48019;DHT22;33786;48.690;9.562;2023-06-22T04:02:12;19.90;99.90
48019;DHT22;33786;48.690;9.562;2023-06-22T04:04:39;20.30;99.90
48019;DHT22;33786;48.690;9.562;2023-06-22T04:07:06;20.70;99.90
48019;DHT22;33786;48.690;9.562;2023-06-22T04:09:33;21.10;99.90
48019;DHT22;33786;48.690;9.562;2023-06-22T04:12:00;21.50;99.90
48019;DHT22;33786;48.690;9.562;2023-06-22T04:14:27;21.90;99.90
48019;DHT22;33786;48.690;9.562;2023-06-22T04:16:54;22.10;99.90
48019;DHT22;33786;48.690;9.562;2023-06-22T04:19:20;22.00;99.90
48019;DHT22;33786;48.690;9.562;2023-06-22T04:21:47;22.10;99.90
48019;DHT22;33786;48.690;9.562;2023-06-22T04:24:15;22.30;99.90
48019;DHT22;33786;48.690;9.562;2023-06-22T04:26:42;22.60;99.90
48019;DHT22;33786;48.690;9.562;2023-06-22T04:29:11;22.60;99.90
48019;DHT22;33786;48.690;9.562;2023-06-22T04:31:38;23.10;99.90
48019;DHT22;33786;48.690;9.562;2023-06-22T04:34:06;23.60;99.90
48019;DHT22;33786;48.690;9.562;2023-06-22T04:36:42;24.20;99.90
48019;DHT22;33786;48.690;9.562;2023-06-22T04:39:12;24.70;99.90
48019;DHT22;33786;48.690;9.562;2023-06-22T04:41:39;24.90;99.90
48019;DHT22;33786;48.690;9.562;2023-06-22T04:46:36;25.70;99.90
48019;DHT22;33786;48.690;9.562;2023-06-22T04:49:05;26.10;99.60
48019;DHT22;33786;48.690;9.562;2023-06-22T04:51:42;26.40;98.70
48019;DHT22;33786;48.690;9.562;2023-06-22T04:54:09;26.50;98.50
48019;DHT22;33786;48.690;9.562;2023-06-22T04:56:36;26.90;97.80
48019;DHT22;33786;48.690;9.562;2023-06-22T04:59:03;27.50;96.90
48019;DHT22;33786;48.690;9.562;2023-06-22T05:01:30;27.90;96.10
48019;DHT22;33786;48.690;9.562;2023-06-22T05:04:01;28.30;95.00
48019;DHT22;33786;48.690;9.562;2023-06-22T05:06:30;28.10;95.20
48019;DHT22;33786;48.690;9.562;2023-06-22T05:08:57;29.10;94.20
48019;DHT22;33786;48.690;9.562;2023-06-22T05:11:27;29.70;92.90
48019;DHT22;33786;48.690;9.562;2023-06-22T05:13:54;29.60;92.40
48019;DHT22;33786;48.690;9.562;2023-06-22T05:16:21;29.80;92.40
48019;DHT22;33786;48.690;9.562;2023-06-22T05:18:54;30.80;90.90
48019;DHT22;33786;48.690;9.562;2023-06-22T05:21:21;30.60;90.40
48019;DHT22;33786;48.690;9.562;2023-06-22T05:23:48;30.70;90.30
48019;DHT22;33786;48.690;9.562;2023-06-22T05:26:15;30.50;90.00
48019;DHT22;33786;48.690;9.562;2023-06-22T05:28:42;30.10;90.60
48019;DHT22;33786;48.690;9.562;2023-06-22T05:31:13;30.00;90.90
48019;DHT22;33786;48.690;9.562;2023-06-22T05:33:40;29.90;90.50
48019;DHT22;33786;48.690;9.562;2023-06-22T05:36:07;29.40;91.40
48019;DHT22;33786;48.690;9.562;2023-06-22T05:38:34;29.50;91.30
48019;DHT22;33786;48.690;9.562;2023-06-22T05:41:01;29.50;91.30
48019;DHT22;33786;48.690;9.562;2023-06-22T05:43:28;30.00;91.00
48019;DHT22;33786;48.690;9.562;2023-06-22T05:45:54;30.60;89.80
48019;DHT22;33786;48.690;9.562;2023-06-22T05:48:21;31.00;88.20
48019;DHT22;33786;48.690;9.562;2023-06-22T05:50:48;30.90;88.10
48019;DHT22;33786;48.690;9.562;2023-06-22T05:53:15;30.80;88.60
48019;DHT22;33786;48.690;9.562;2023-06-22T05:55:42;31.40;87.60
48019;DHT22;33786;48.690;9.562;2023-06-22T05:58:09;32.10;86.30
48019;DHT22;33786;48.690;9.562;2023-06-22T06:00:36;32.90;84.10
48019;DHT22;33786;48.690;9.562;2023-06-22T06:03:03;32.50;83.20
48019;DHT22;33786;48.690;9.562;2023-06-22T06:05:31;32.60;82.90
48019;DHT22;33786;48.690;9.562;2023-06-22T06:07:58;31.50;84.00
48019;DHT22;33786;48.690;9.562;2023-06-22T06:10:24;31.00;85.60
48019;DHT22;33786;48.690;9.562;2023-06-22T06:12:52;30.90;85.30
48019;DHT22;33786;48.690;9.562;2023-06-22T06:15:19;30.80;85.60
48019;DHT22;33786;48.690;9.562;2023-06-22T06:17:46;31.40;84.10
48019;DHT22;33786;48.690;9.562;2023-06-22T06:20:13;32.30;82.40
48019;DHT22;33786;48.690;9.562;2023-06-22T06:22:40;33.10;80.50
48019;DHT22;33786;48.690;9.562;2023-06-22T06:25:07;33.00;80.40
48019;DHT22;33786;48.690;9.562;2023-06-22T06:27:34;33.60;79.50
48019;DHT22;33786;48.690;9.562;2023-06-22T06:30:01;34.30;77.00
48019;DHT22;33786;48.690;9.562;2023-06-22T06:32:28;34.00;76.80
48019;DHT22;33786;48.690;9.562;2023-06-22T06:34:55;34.20;76.30
48019;DHT22;33786;48.690;9.562;2023-06-22T06:37:21;34.60;74.50
48019;DHT22;33786;48.690;9.562;2023-06-22T06:39:48;34.50;75.00
48019;DHT22;33786;48.690;9.562;2023-06-22T06:42:15;34.60;74.00
48019;DHT22;33786;48.690;9.562;2023-06-22T06:44:42;34.60;74.10
48019;DHT22;33786;48.690;9.562;2023-06-22T06:47:09;34.50;72.60
48019;DHT22;33786;48.690;9.562;2023-06-22T06:49:35;34.90;74.00
48019;DHT22;33786;48.690;9.562;2023-06-22T06:52:02;35.40;71.40
48019;DHT22;33786;48.690;9.562;2023-06-22T06:54:29;35.20;70.90
48019;DHT22;33786;48.690;9.562;2023-06-22T06:56:56;35.90;70.90
48019;DHT22;33786;48.690;9.562;2023-06-22T06:59:23;36.10;69.70
48019;DHT22;33786;48.690;9.562;2023-06-22T07:01:49;36.40;69.30
48019;DHT22;33786;48.690;9.562;2023-06-22T07:04:16;37.20;68.40
48019;DHT22;33786;48.690;9.562;2023-06-22T07:06:43;38.20;66.50
48019;DHT22;33786;48.690;9.562;2023-06-22T07:09:10;37.80;66.10
48019;DHT22;33786;48.690;9.562;2023-06-22T07:11:37;38.40;65.00
48019;DHT22;33786;48.690;9.562;2023-06-22T07:14:03;38.30;64.70
48019;DHT22;33786;48.690;9.562;2023-06-22T07:16:30;38.10;64.80
48019;DHT22;33786;48.690;9.562;2023-06-22T07:18:58;36.40;65.90
48019;DHT22;33786;48.690;9.562;2023-06-22T07:21:25;35.20;67.70
48019;DHT22;33786;48.690;9.562;2023-06-22T07:23:51;34.60;69.20
48019;DHT22;33786;48.690;9.562;2023-06-22T07:26:18;34.50;69.50
48019;DHT22;33786;48.690;9.562;2023-06-22T07:28:45;34.40;69.40
48019;DHT22;33786;48.690;9.562;2023-06-22T07:31:13;35.30;68.50
48019;DHT22;33786;48.690;9.562;2023-06-22T07:33:39;35.60;67.90
48019;DHT22;33786;48.690;9.562;2023-06-22T07:36:06;35.80;67.30
48019;DHT22;33786;48.690;9.562;2023-06-22T07:38:34;35.50;67.10
48019;DHT22;33786;48.690;9.562;2023-06-22T07:41:04;34.90;68.70
48019;DHT22;33786;48.690;9.562;2023-06-22T07:43:32;35.10;68.40
48019;DHT22;33786;48.690;9.562;2023-06-22T07:46:02;34.30;68.60
48019;DHT22;33786;48.690;9.562;2023-06-22T07:48:31;33.60;69.70
48019;DHT22;33786;48.690;9.562;2023-06-22T07:50:58;34.20;68.90
48019;DHT22;33786;48.690;9.562;2023-06-22T07:53:24;34.00;69.30
48019;DHT22;33786;48.690;9.562;2023-06-22T07:55:51;33.20;70.20
48019;DHT22;33786;48.690;9.562;2023-06-22T07:58:18;32.70;71.10
48019;DHT22;33786;48.690;9.562;2023-06-22T08:00:46;33.00;71.90
48019;DHT22;33786;48.690;9.562;2023-06-22T08:03:15;32.80;71.20
48019;DHT22;33786;48.690;9.562;2023-06-22T08:05:42;32.80;71.70
48019;DHT22;33786;48.690;9.562;2023-06-22T08:08:09;32.50;71.50
48019;DHT22;33786;48.690;9.562;2023-06-22T08:10:36;32.90;71.50
48019;DHT22;33786;48.690;9.562;2023-06-22T08:13:03;33.30;71.50
48019;DHT22;33786;48.690;9.562;2023-06-22T08:15:29;33.80;70.90
48019;DHT22;33786;48.690;9.562;2023-06-22T08:17:57;34.00;70.20
48019;DHT22;33786;48.690;9.562;2023-06-22T08:20:24;33.50;70.70
48019;DHT22;33786;48.690;9.562;2023-06-22T08:22:51;33.10;71.30
48019;DHT22;33786;48.690;9.562;2023-06-22T08:25:18;32.80;71.90
48019;DHT22;33786;48.690;9.562;2023-06-22T08:27:45;32.80;72.20
48019;DHT22;33786;48.690;9.562;2023-06-22T08:30:13;32.30;73.00
48019;DHT22;33786;48.690;9.562;2023-06-22T08:32:40;32.70;72.70
48019;DHT22;33786;48.690;9.562;2023-06-22T08:35:07;33.10;71.80
48019;DHT22;33786;48.690;9.562;2023-06-22T08:37:37;32.90;72.60
48019;DHT22;33786;48.690;9.562;2023-06-22T08:40:06;33.30;71.80
48019;DHT22;33786;48.690;9.562;2023-06-22T08:42:39;33.40;71.30
48019;DHT22;33786;48.690;9.562;2023-06-22T08:45:07;33.20;73.60
48019;DHT22;33786;48.690;9.562;2023-06-22T08:47:33;33.50;71.70
48019;DHT22;33786;48.690;9.562;2023-06-22T08:50:00;33.10;72.80
48019;DHT22;33786;48.690;9.562;2023-06-22T08:52:29;33.60;73.30
48019;DHT22;33786;48.690;9.562;2023-06-22T08:54:56;33.70;72.20
48019;DHT22;33786;48.690;9.562;2023-06-22T08:57:24;33.60;71.10
48019;DHT22;33786;48.690;9.562;2023-06-22T08:59:51;33.40;71.70
48019;DHT22;33786;48.690;9.562;2023-06-22T09:02:25;33.50;72.00
48019;DHT22;33786;48.690;9.562;2023-06-22T09:04:52;33.80;71.50
48019;DHT22;33786;48.690;9.562;2023-06-22T09:07:22;34.10;72.10
48019;DHT22;33786;48.690;9.562;2023-06-22T09:09:50;34.50;70.90
48019;DHT22;33786;48.690;9.562;2023-06-22T09:12:17;34.50;70.40
48019;DHT22;33786;48.690;9.562;2023-06-22T09:14:46;35.00;72.40
48019;DHT22;33786;48.690;9.562;2023-06-22T09:17:13;35.10;69.70
48019;DHT22;33786;48.690;9.562;2023-06-22T09:19:40;34.90;71.10
48019;DHT22;33786;48.690;9.562;2023-06-22T09:22:06;34.70;71.00
48019;DHT22;33786;48.690;9.562;2023-06-22T09:24:33;35.00;72.00
48019;DHT22;33786;48.690;9.562;2023-06-22T09:27:00;35.20;73.20
48019;DHT22;33786;48.690;9.562;2023-06-22T09:29:27;35.20;72.20
48019;DHT22;33786;48.690;9.562;2023-06-22T09:31:53;35.50;71.00
48019;DHT22;33786;48.690;9.562;2023-06-22T09:34:22;35.10;68.90
48019;DHT22;33786;48.690;9.562;2023-06-22T09:36:49;35.10;69.90
48019;DHT22;33786;48.690;9.562;2023-06-22T09:39:17;34.90;71.00
48019;DHT22;33786;48.690;9.562;2023-06-22T09:41:44;34.90;71.50
48019;DHT22;33786;48.690;9.562;2023-06-22T09:44:11;34.70;71.00
48019;DHT22;33786;48.690;9.562;2023-06-22T09:46:37;34.60;70.20
48019;DHT22;33786;48.690;9.562;2023-06-22T09:49:04;34.60;70.50
48019;DHT22;33786;48.690;9.562;2023-06-22T09:51:31;34.70;69.70
48019;DHT22;33786;48.690;9.562;2023-06-22T09:53:58;34.90;69.60
48019;DHT22;33786;48.690;9.562;2023-06-22T09:56:25;35.00;70.40
48019;DHT22;33786;48.690;9.562;2023-06-22T09:58:55;35.00;71.10
48019;DHT22;33786;48.690;9.562;2023-06-22T10:01:39;35.10;70.70
48019;DHT22;33786;48.690;9.562;2023-06-22T10:04:06;35.40;70.00
48019;DHT22;33786;48.690;9.562;2023-06-22T10:06:32;35.30;69.90
48019;DHT22;33786;48.690;9.562;2023-06-22T10:08:59;35.40;71.20
48019;DHT22;33786;48.690;9.562;2023-06-22T10:11:26;35.40;71.40
48019;DHT22;33786;48.690;9.562;2023-06-22T10:13:56;35.50;70.30
48019;DHT22;33786;48.690;9.562;2023-06-22T10:16:24;35.40;70.10
48019;DHT22;33786;48.690;9.562;2023-06-22T10:18:53;35.40;70.80
48019;DHT22;33786;48.690;9.562;2023-06-22T10:21:20;35.20;70.50
48019;DHT22;33786;48.690;9.562;2023-06-22T10:23:47;35.30;70.90
48019;DHT22;33786;48.690;9.562;2023-06-22T10:26:13;35.10;71.20
48019;DHT22;33786;48.690;9.562;2023-06-22T10:28:40;34.80;70.20
48019;DHT22;33786;48.690;9.562;2023-06-22T10:31:07;34.40;70.80
48019;DHT22;33786;48.690;9.562;2023-06-22T10:33:34;34.20;71.50
48019;DHT22;33786;48.690;9.562;2023-06-22T10:36:00;34.40;71.50
48019;DHT22;33786;48.690;9.562;2023-06-22T10:38:27;34.50;71.50
48019;DHT22;33786;48.690;9.562;2023-06-22T10:40:54;34.20;71.10
48019;DHT22;33786;48.690;9.562;2023-06-22T10:43:24;34.00;71.70
48019;DHT22;33786;48.690;9.562;2023-06-22T10:45:50;34.50;72.90
48019;DHT22;33786;48.690;9.562;2023-06-22T10:48:17;34.70;72.80
48019;DHT22;33786;48.690;9.562;2023-06-22T10:50:44;35.00;70.10
48019;DHT22;33786;48.690;9.562;2023-06-22T10:56:39;35.20;71.50
48019;DHT22;33786;48.690;9.562;2023-06-22T10:59:06;34.90;71.10
48019;DHT22;33786;48.690;9.562;2023-06-22T11:01:33;35.10;70.60
48019;DHT22;33786;48.690;9.562;2023-06-22T11:04:02;35.40;69.10
48019;DHT22;33786;48.690;9.562;2023-06-22T11:06:30;35.50;69.60
48019;DHT22;33786;48.690;9.562;2023-06-22T11:08:57;35.20;67.80
48019;DHT22;33786;48.690;9.562;2023-06-22T11:11:37;35.20;68.00
48019;DHT22;33786;48.690;9.562;2023-06-22T11:14:04;35.80;68.20
48019;DHT22;33786;48.690;9.562;2023-06-22T11:16:31;36.00;67.70
48019;DHT22;33786;48.690;9.562;2023-06-22T11:18:58;36.10;68.10
48019;DHT22;33786;48.690;9.562;2023-06-22T11:21:25;35.60;69.50
48019;DHT22;33786;48.690;9.562;2023-06-22T11:23:52;35.60;67.90
48019;DHT22;33786;48.690;9.562;2023-06-22T11:26:18;35.40;68.00
48019;DHT22;33786;48.690;9.562;2023-06-22T11:28:52;35.60;70.80
48019;DHT22;33786;48.690;9.562;2023-06-22T11:31:27;35.70;68.90
48019;DHT22;33786;48.690;9.562;2023-06-22T11:40:50;36.30;69.10
48019;DHT22;33786;48.690;9.562;2023-06-22T11:43:17;36.50;68.70
48019;DHT22;33786;48.690;9.562;2023-06-22T11:45:43;36.70;69.10
48019;DHT22;33786;48.690;9.562;2023-06-22T11:48:10;36.80;68.20
48019;DHT22;33786;48.690;9.562;2023-06-22T11:50:37;36.50;68.30
48019;DHT22;33786;48.690;9.562;2023-06-22T11:53:04;36.10;67.30
48019;DHT22;33786;48.690;9.562;2023-06-22T11:55:31;35.70;68.20
48019;DHT22;33786;48.690;9.562;2023-06-22T11:57:57;35.70;71.10
48019;DHT22;33786;48.690;9.562;2023-06-22T12:00:29;35.50;69.90
48019;DHT22;33786;48.690;9.562;2023-06-22T12:02:56;35.60;71.00
48019;DHT22;33786;48.690;9.562;2023-06-22T12:05:26;35.50;69.20
48019;DHT22;33786;48.690;9.562;2023-06-22T12:07:53;35.40;69.30
48019;DHT22;33786;48.690;9.562;2023-06-22T12:10:20;35.30;71.30
48019;DHT22;33786;48.690;9.562;2023-06-22T12:12:47;35.20;69.00
48019;DHT22;33786;48.690;9.562;2023-06-22T12:15:14;35.10;70.30
48019;DHT22;33786;48.690;9.562;2023-06-22T12:17:41;35.40;68.10
48019;DHT22;33786;48.690;9.562;2023-06-22T12:20:08;35.40;68.10
48019;DHT22;33786;48.690;9.562;2023-06-22T12:22:35;35.90;69.10
48019;DHT22;33786;48.690;9.562;2023-06-22T12:25:04;35.90;67.30
48019;DHT22;33786;48.690;9.562;2023-06-22T12:27:30;36.20;67.00
48019;DHT22;33786;48.690;9.562;2023-06-22T12:29:57;36.40;67.30
48019;DHT22;33786;48.690;9.562;2023-06-22T12:32:24;36.20;68.50
48019;DHT22;33786;48.690;9.562;2023-06-22T12:34:52;36.00;71.60
48019;DHT22;33786;48.690;9.562;2023-06-22T12:37:19;35.80;68.30
48019;DHT22;33786;48.690;9.562;2023-06-22T12:39:45;35.80;67.50
48019;DHT22;33786;48.690;9.562;2023-06-22T12:42:12;35.90;67.50
48019;DHT22;33786;48.690;9.562;2023-06-22T12:44:39;35.90;67.40
48019;DHT22;33786;48.690;9.562;2023-06-22T12:47:06;35.70;72.30
48019;DHT22;33786;48.690;9.562;2023-06-22T12:49:34;35.40;70.70
48019;DHT22;33786;48.690;9.562;2023-06-22T12:52:01;35.30;70.60
48019;DHT22;33786;48.690;9.562;2023-06-22T12:54:27;35.20;73.90
48019;DHT22;33786;48.690;9.562;2023-06-22T12:57:01;35.00;75.10
48019;DHT22;33786;48.690;9.562;2023-06-22T12:59:27;34.90;75.80
48019;DHT22;33786;48.690;9.562;2023-06-22T13:01:54;34.80;73.50
48019;DHT22;33786;48.690;9.562;2023-06-22T13:04:21;34.60;74.40
48019;DHT22;33786;48.690;9.562;2023-06-22T13:06:47;34.50;75.10
48019;DHT22;33786;48.690;9.562;2023-06-22T13:09:18;34.30;74.50
48019;DHT22;33786;48.690;9.562;2023-06-22T13:11:47;34.10;77.10
48019;DHT22;33786;48.690;9.562;2023-06-22T13:14:14;34.10;77.10
48019;DHT22;33786;48.690;9.562;2023-06-22T13:16:42;34.20;75.60
48019;DHT22;33786;48.690;9.562;2023-06-22T13:19:09;34.30;75.80
48019;DHT22;33786;48.690;9.562;2023-06-22T13:21:36;34.50;74.50
48019;DHT22;33786;48.690;9.562;2023-06-22T13:24:03;34.70;73.00
48019;DHT22;33786;48.690;9.562;2023-06-22T13:26:32;34.80;73.00
48019;DHT22;33786;48.690;9.562;2023-06-22T13:29:00;34.90;75.80
48019;DHT22;33786;48.690;9.562;2023-06-22T13:31:26;34.90;73.10
48019;DHT22;33786;48.690;9.562;2023-06-22T13:33:53;35.00;73.30
48019;DHT22;33786;48.690;9.562;2023-06-22T13:36:20;35.00;72.10
48019;DHT22;33786;48.690;9.562;2023-06-22T13:38:48;35.10;71.90
48019;DHT22;33786;48.690;9.562;2023-06-22T13:41:14;35.20;71.60
48019;DHT22;33786;48.690;9.562;2023-06-22T13:43:41;35.50;71.40
48019;DHT22;33786;48.690;9.562;2023-06-22T13:46:08;35.80;69.60
48019;DHT22;33786;48.690;9.562;2023-06-22T13:48:35;36.10;69.10
48019;DHT22;33786;48.690;9.562;2023-06-22T13:51:01;35.90;67.80
48019;DHT22;33786;48.690;9.562;2023-06-22T13:53:28;35.80;66.80
48019;DHT22;33786;48.690;9.562;2023-06-22T13:55:55;36.00;67.30
48019;DHT22;33786;48.690;9.562;2023-06-22T13:58:22;36.00;66.60
48019;DHT22;33786;48.690;9.562;2023-06-22T14:00:49;35.90;67.50
48019;DHT22;33786;48.690;9.562;2023-06-22T14:03:16;35.60;68.40
48019;DHT22;33786;48.690;9.562;2023-06-22T14:05:43;35.60;67.90
48019;DHT22;33786;48.690;9.562;2023-06-22T14:08:10;35.50;69.90
48019;DHT22;33786;48.690;9.562;2023-06-22T14:10:56;35.50;69.00
48019;DHT22;33786;48.690;9.562;2023-06-22T14:13:23;35.10;68.30
48019;DHT22;33786;48.690;9.562;2023-06-22T14:15:50;34.80;68.80
48019;DHT22;33786;48.690;9.562;2023-06-22T14:18:18;35.10;69.40
48019;DHT22;33786;48.690;9.562;2023-06-22T14:20:45;35.20;70.20
48019;DHT22;33786;48.690;9.562;2023-06-22T14:23:14;35.40;69.50
48019;DHT22;33786;48.690;9.562;2023-06-22T14:25:40;35.20;67.80
48019;DHT22;33786;48.690;9.562;2023-06-22T14:28:07;35.10;68.50
48019;DHT22;33786;48.690;9.562;2023-06-22T14:30:38;35.00;67.40
48019;DHT22;33786;48.690;9.562;2023-06-22T14:33:04;35.10;68.20
48019;DHT22;33786;48.690;9.562;2023-06-22T14:35:31;35.30;68.80
48019;DHT22;33786;48.690;9.562;2023-06-22T14:37:58;35.40;67.80
48019;DHT22;33786;48.690;9.562;2023-06-22T14:40:25;35.40;68.40
48019;DHT22;33786;48.690;9.562;2023-06-22T14:42:52;35.20;67.30
48019;DHT22;33786;48.690;9.562;2023-06-22T14:45:19;35.30;68.30
48019;DHT22;33786;48.690;9.562;2023-06-22T14:47:46;35.30;68.60
48019;DHT22;33786;48.690;9.562;2023-06-22T14:53:41;35.40;69.80
48019;DHT22;33786;48.690;9.562;2023-06-22T14:56:08;35.50;70.00
48019;DHT22;33786;48.690;9.562;2023-06-22T14:58:35;35.50;68.30
48019;DHT22;33786;48.690;9.562;2023-06-22T15:01:02;35.40;68.60
48019;DHT22;33786;48.690;9.562;2023-06-22T15:03:30;35.40;68.70
48019;DHT22;33786;48.690;9.562;2023-06-22T15:05:58;35.20;67.20
48019;DHT22;33786;48.690;9.562;2023-06-22T15:08:26;35.20;67.40
48019;DHT22;33786;48.690;9.562;2023-06-22T15:10:53;34.90;67.10
48019;DHT22;33786;48.690;9.562;2023-06-22T15:13:20;34.50;66.90
48019;DHT22;33786;48.690;9.562;2023-06-22T15:15:47;34.30;66.50
48019;DHT22;33786;48.690;9.562;2023-06-22T15:18:14;34.30;68.00
48019;DHT22;33786;48.690;9.562;2023-06-22T15:20:41;34.10;67.60
48019;DHT22;33786;48.690;9.562;2023-06-22T15:23:11;34.00;67.60
48019;DHT22;33786;48.690;9.562;2023-06-22T15:25:38;34.10;67.80
48019;DHT22;33786;48.690;9.562;2023-06-22T15:28:06;34.20;68.40
48019;DHT22;33786;48.690;9.562;2023-06-22T15:30:33;34.60;68.50
48019;DHT22;33786;48.690;9.562;2023-06-22T15:33:00;34.50;68.90
48019;DHT22;33786;48.690;9.562;2023-06-22T15:35:27;34.50;68.20
48019;DHT22;33786;48.690;9.562;2023-06-22T15:37:54;34.40;68.50
48019;DHT22;33786;48.690;9.562;2023-06-22T15:40:20;34.40;68.50
48019;DHT22;33786;48.690;9.562;2023-06-22T15:42:50;34.50;68.10
48019;DHT22;33786;48.690;9.562;2023-06-22T15:45:19;34.50;68.50
48019;DHT22;33786;48.690;9.562;2023-06-22T15:47:46;34.70;69.40
48019;DHT22;33786;48.690;9.562;2023-06-22T15:50:13;34.70;69.20
48019;DHT22;33786;48.690;9.562;2023-06-22T15:52:40;34.70;68.20
48019;DHT22;33786;48.690;9.562;2023-06-22T15:55:07;34.70;68.00